sensor_id;sensor_type;location;lat;lon;timestamp;P1;durP1;ratioP1;P2;durP2;ratioP2
59310;SDS011;45078;51.654;21.250;2022-09-03T00:07:51;3.17;;;1.10;;
59310;SDS011;45078;51.654;21.250;2022-09-03T00:10:20;5.07;;;1.40;;
59310;SDS011;45078;51.654;21.250;2022-09-03T00:12:56;3.35;;;1.40;;
59310;SDS011;45078;51.654;21.250;2022-09-03T00:15:26;2.85;;;1.33;;
59310;SDS011;45078;51.654;21.250;2022-09-03T00:17:58;2.58;;;1.45;;
59310;SDS011;45078;51.654;21.250;2022-09-03T00:20:36;2.65;;;1.23;;
59310;SDS011;45078;51.654;21.250;2022-09-03T00:23:04;1.48;;;1.10;;
59310;SDS011;45078;51.654;21.250;2022-09-03T00:25:37;2.30;;;1.38;;
59310;SDS011;45078;51.654;21.250;2022-09-03T00:28:39;2.38;;;1.30;;
59310;SDS011;45078;51.654;21.250;2022-09-03T00:31:13;0.98;;;0.85;;
59310;SDS011;45078;51.654;21.250;2022-09-03T00:33:48;2.50;;;1.13;;
59310;SDS011;45078;51.654;21.250;2022-09-03T00:37:02;2.70;;;1.65;;
59310;SDS011;45078;51.654;21.250;2022-09-03T00:39:20;1.70;;;1.05;;
59310;SDS011;45078;51.654;21.250;2022-09-03T01:01:50;2.30;;;1.30;;
59310;SDS011;45078;51.654;21.250;2022-09-03T01:09:50;1.90;;;1.53;;
59310;SDS011;45078;51.654;21.250;2022-09-03T01:21:03;1.65;;;1.30;;
59310;SDS011;45078;51.654;21.250;2022-09-03T01:32:10;2.63;;;1.52;;
59310;SDS011;45078;51.654;21.250;2022-09-03T01:35:01;2.30;;;1.60;;
59310;SDS011;45078;51.654;21.250;2022-09-03T01:43:16;2.95;;;1.27;;
59310;SDS011;45078;51.654;21.250;2022-09-03T01:46:12;2.03;;;1.30;;
59310;SDS011;45078;51.654;21.250;2022-09-03T01:48:59;2.22;;;1.30;;
59310;SDS011;45078;51.654;21.250;2022-09-03T01:51:48;3.60;;;1.33;;
59310;SDS011;45078;51.654;21.250;2022-09-03T02:00:02;2.47;;;1.40;;
59310;SDS011;45078;51.654;21.250;2022-09-03T02:02:38;3.00;;;1.58;;
59310;SDS011;45078;51.654;21.250;2022-09-03T02:05:16;4.72;;;1.23;;
59310;SDS011;45078;51.654;21.250;2022-09-03T02:07:50;1.80;;;1.30;;
59310;SDS011;45078;51.654;21.250;2022-09-03T02:10:31;2.42;;;1.60;;
59310;SDS011;45078;51.654;21.250;2022-09-03T02:13:19;3.63;;;1.60;;
59310;SDS011;45078;51.654;21.250;2022-09-03T02:15:50;2.00;;;1.05;;
59310;SDS011;45078;51.654;21.250;2022-09-03T02:18:40;2.53;;;1.20;;
59310;SDS011;45078;51.654;21.250;2022-09-03T02:21:24;2.00;;;1.60;;
59310;SDS011;45078;51.654;21.250;2022-09-03T02:23:51;2.60;;;1.42;;
59310;SDS011;45078;51.654;21.250;2022-09-03T02:26:20;5.55;;;1.40;;
59310;SDS011;45078;51.654;21.250;2022-09-03T02:28:48;1.13;;;1.05;;
59310;SDS011;45078;51.654;21.250;2022-09-03T02:31:15;2.85;;;1.42;;
59310;SDS011;45078;51.654;21.250;2022-09-03T02:33:41;5.18;;;1.10;;
59310;SDS011;45078;51.654;21.250;2022-09-03T02:36:09;2.08;;;1.55;;
59310;SDS011;45078;51.654;21.250;2022-09-03T02:38:39;2.83;;;1.73;;
59310;SDS011;45078;51.654;21.250;2022-09-03T02:41:06;5.85;;;1.45;;
59310;SDS011;45078;51.654;21.250;2022-09-03T02:46:11;2.08;;;1.30;;
59310;SDS011;45078;51.654;21.250;2022-09-03T02:48:45;3.08;;;1.35;;
59310;SDS011;45078;51.654;21.250;2022-09-03T02:51:11;4.13;;;1.40;;
59310;SDS011;45078;51.654;21.250;2022-09-03T02:53:37;4.53;;;1.35;;
59310;SDS011;45078;51.654;21.250;2022-09-03T02:56:03;2.15;;;1.23;;
59310;SDS011;45078;51.654;21.250;2022-09-03T02:58:29;2.65;;;1.35;;
59310;SDS011;45078;51.654;21.250;2022-09-03T03:00:56;5.35;;;1.63;;
59310;SDS011;45078;51.654;21.250;2022-09-03T03:03:22;2.83;;;1.48;;
59310;SDS011;45078;51.654;21.250;2022-09-03T03:05:52;2.60;;;1.27;;
59310;SDS011;45078;51.654;21.250;2022-09-03T03:08:20;3.95;;;1.70;;
59310;SDS011;45078;51.654;21.250;2022-09-03T03:10:51;3.97;;;1.98;;
59310;SDS011;45078;51.654;21.250;2022-09-03T03:13:18;5.80;;;2.08;;
59310;SDS011;45078;51.654;21.250;2022-09-03T03:15:44;3.10;;;1.52;;
59310;SDS011;45078;51.654;21.250;2022-09-03T03:18:11;2.80;;;1.55;;
59310;SDS011;45078;51.654;21.250;2022-09-03T03:20:38;4.28;;;1.60;;
59310;SDS011;45078;51.654;21.250;2022-09-03T03:23:05;3.70;;;1.63;;
59310;SDS011;45078;51.654;21.250;2022-09-03T03:25:33;3.60;;;1.10;;
59310;SDS011;45078;51.654;21.250;2022-09-03T03:28:00;3.15;;;1.30;;
59310;SDS011;45078;51.654;21.250;2022-09-03T03:30:26;3.10;;;1.73;;
59310;SDS011;45078;51.654;21.250;2022-09-03T03:32:52;2.63;;;1.67;;
59310;SDS011;45078;51.654;21.250;2022-09-03T03:35:19;2.78;;;1.48;;
59310;SDS011;45078;51.654;21.250;2022-09-03T03:37:45;3.65;;;1.70;;
59310;SDS011;45078;51.654;21.250;2022-09-03T03:40:11;2.08;;;1.40;;
59310;SDS011;45078;51.654;21.250;2022-09-03T03:42:37;5.45;;;1.30;;
59310;SDS011;45078;51.654;21.250;2022-09-03T03:45:03;5.07;;;1.75;;
59310;SDS011;45078;51.654;21.250;2022-09-03T03:47:30;2.25;;;1.13;;
59310;SDS011;45078;51.654;21.250;2022-09-03T03:49:57;3.25;;;1.35;;
59310;SDS011;45078;51.654;21.250;2022-09-03T03:52:24;2.33;;;1.52;;
59310;SDS011;45078;51.654;21.250;2022-09-03T03:54:51;3.70;;;1.60;;
59310;SDS011;45078;51.654;21.250;2022-09-03T03:57:18;1.95;;;1.40;;
59310;SDS011;45078;51.654;21.250;2022-09-03T03:59:45;3.03;;;1.50;;
59310;SDS011;45078;51.654;21.250;2022-09-03T04:02:11;6.25;;;1.77;;
59310;SDS011;45078;51.654;21.250;2022-09-03T04:04:37;2.63;;;1.48;;
59310;SDS011;45078;51.654;21.250;2022-09-03T04:07:03;2.05;;;1.33;;
59310;SDS011;45078;51.654;21.250;2022-09-03T04:09:29;2.67;;;1.48;;
59310;SDS011;45078;51.654;21.250;2022-09-03T04:11:55;2.30;;;1.48;;
59310;SDS011;45078;51.654;21.250;2022-09-03T04:14:25;2.38;;;1.42;;
59310;SDS011;45078;51.654;21.250;2022-09-03T04:16:52;3.92;;;1.80;;
59310;SDS011;45078;51.654;21.250;2022-09-03T04:19:18;3.20;;;1.30;;
59310;SDS011;45078;51.654;21.250;2022-09-03T04:21:47;2.88;;;1.63;;
59310;SDS011;45078;51.654;21.250;2022-09-03T04:24:12;2.45;;;1.52;;
59310;SDS011;45078;51.654;21.250;2022-09-03T04:26:38;3.10;;;1.33;;
59310;SDS011;45078;51.654;21.250;2022-09-03T04:29:08;3.70;;;1.20;;
59310;SDS011;45078;51.654;21.250;2022-09-03T04:31:35;3.03;;;1.42;;
59310;SDS011;45078;51.654;21.250;2022-09-03T04:34:01;4.43;;;1.88;;
59310;SDS011;45078;51.654;21.250;2022-09-03T04:36:30;2.85;;;1.42;;
59310;SDS011;45078;51.654;21.250;2022-09-03T04:38:59;2.83;;;1.73;;
59310;SDS011;45078;51.654;21.250;2022-09-03T04:41:26;4.97;;;1.75;;
59310;SDS011;45078;51.654;21.250;2022-09-03T04:43:54;5.47;;;2.15;;
59310;SDS011;45078;51.654;21.250;2022-09-03T04:46:22;15.95;;;7.63;;
59310;SDS011;45078;51.654;21.250;2022-09-03T04:48:56;11.50;;;5.38;;
59310;SDS011;45078;51.654;21.250;2022-09-03T04:51:22;11.77;;;5.00;;
59310;SDS011;45078;51.654;21.250;2022-09-03T04:54:00;5.93;;;3.53;;
59310;SDS011;45078;51.654;21.250;2022-09-03T04:56:27;2.63;;;1.77;;
59310;SDS011;45078;51.654;21.250;2022-09-03T04:58:56;3.72;;;1.77;;
59310;SDS011;45078;51.654;21.250;2022-09-03T05:01:24;5.53;;;2.15;;
59310;SDS011;45078;51.654;21.250;2022-09-03T05:03:52;4.40;;;2.17;;
59310;SDS011;45078;51.654;21.250;2022-09-03T05:06:22;4.00;;;2.33;;
59310;SDS011;45078;51.654;21.250;2022-09-03T05:08:50;5.03;;;3.20;;
59310;SDS011;45078;51.654;21.250;2022-09-03T05:11:17;11.25;;;8.65;;
59310;SDS011;45078;51.654;21.250;2022-09-03T05:13:46;11.25;;;7.78;;
59310;SDS011;45078;51.654;21.250;2022-09-03T05:16:13;6.30;;;3.85;;
59310;SDS011;45078;51.654;21.250;2022-09-03T05:18:39;6.28;;;3.05;;
59310;SDS011;45078;51.654;21.250;2022-09-03T05:21:10;6.55;;;2.10;;
59310;SDS011;45078;51.654;21.250;2022-09-03T05:23:38;6.72;;;3.33;;
59310;SDS011;45078;51.654;21.250;2022-09-03T05:26:06;3.90;;;1.80;;
59310;SDS011;45078;51.654;21.250;2022-09-03T05:28:35;3.63;;;2.03;;
59310;SDS011;45078;51.654;21.250;2022-09-03T05:33:34;3.10;;;1.55;;
59310;SDS011;45078;51.654;21.250;2022-09-03T05:36:05;3.40;;;1.70;;
59310;SDS011;45078;51.654;21.250;2022-09-03T05:38:33;6.55;;;1.95;;
59310;SDS011;45078;51.654;21.250;2022-09-03T05:41:00;5.85;;;2.20;;
59310;SDS011;45078;51.654;21.250;2022-09-03T05:43:27;3.65;;;2.03;;
59310;SDS011;45078;51.654;21.250;2022-09-03T05:46:00;5.32;;;2.35;;
59310;SDS011;45078;51.654;21.250;2022-09-03T05:48:26;2.92;;;1.42;;
59310;SDS011;45078;51.654;21.250;2022-09-03T05:51:01;4.75;;;2.20;;
59310;SDS011;45078;51.654;21.250;2022-09-03T05:53:28;2.97;;;1.60;;
59310;SDS011;45078;51.654;21.250;2022-09-03T05:55:58;5.32;;;1.80;;
59310;SDS011;45078;51.654;21.250;2022-09-03T05:58:32;4.45;;;1.67;;
59310;SDS011;45078;51.654;21.250;2022-09-03T06:00:59;5.65;;;2.50;;
59310;SDS011;45078;51.654;21.250;2022-09-03T06:03:33;5.07;;;1.90;;
59310;SDS011;45078;51.654;21.250;2022-09-03T06:05:59;12.80;;;2.70;;
59310;SDS011;45078;51.654;21.250;2022-09-03T06:08:25;4.60;;;1.90;;
59310;SDS011;45078;51.654;21.250;2022-09-03T06:10:56;8.23;;;2.70;;
59310;SDS011;45078;51.654;21.250;2022-09-03T06:13:23;7.70;;;2.97;;
59310;SDS011;45078;51.654;21.250;2022-09-03T06:15:49;6.25;;;2.75;;
59310;SDS011;45078;51.654;21.250;2022-09-03T06:18:15;4.45;;;1.98;;
59310;SDS011;45078;51.654;21.250;2022-09-03T06:20:40;5.35;;;2.72;;
59310;SDS011;45078;51.654;21.250;2022-09-03T06:23:06;5.28;;;2.25;;
59310;SDS011;45078;51.654;21.250;2022-09-03T06:25:32;9.82;;;2.70;;
59310;SDS011;45078;51.654;21.250;2022-09-03T06:27:58;9.38;;;2.72;;
59310;SDS011;45078;51.654;21.250;2022-09-03T06:30:23;8.45;;;3.33;;
59310;SDS011;45078;51.654;21.250;2022-09-03T06:32:50;4.57;;;2.22;;
59310;SDS011;45078;51.654;21.250;2022-09-03T06:35:16;6.78;;;2.95;;
59310;SDS011;45078;51.654;21.250;2022-09-03T06:37:42;3.90;;;1.88;;
59310;SDS011;45078;51.654;21.250;2022-09-03T06:40:09;5.10;;;2.35;;
59310;SDS011;45078;51.654;21.250;2022-09-03T06:42:37;4.75;;;2.50;;
59310;SDS011;45078;51.654;21.250;2022-09-03T06:45:07;6.53;;;2.90;;
59310;SDS011;45078;51.654;21.250;2022-09-03T06:47:33;6.03;;;2.90;;
59310;SDS011;45078;51.654;21.250;2022-09-03T06:49:59;6.88;;;3.20;;
59310;SDS011;45078;51.654;21.250;2022-09-03T06:52:26;7.95;;;3.35;;
59310;SDS011;45078;51.654;21.250;2022-09-03T06:54:55;7.53;;;3.78;;
59310;SDS011;45078;51.654;21.250;2022-09-03T06:57:21;6.85;;;3.25;;
59310;SDS011;45078;51.654;21.250;2022-09-03T06:59:46;9.20;;;3.50;;
59310;SDS011;45078;51.654;21.250;2022-09-03T07:02:13;7.07;;;3.58;;
59310;SDS011;45078;51.654;21.250;2022-09-03T07:04:39;6.30;;;2.85;;
59310;SDS011;45078;51.654;21.250;2022-09-03T07:07:04;7.10;;;2.95;;
59310;SDS011;45078;51.654;21.250;2022-09-03T07:09:37;7.18;;;3.25;;
59310;SDS011;45078;51.654;21.250;2022-09-03T07:12:03;7.90;;;2.85;;
59310;SDS011;45078;51.654;21.250;2022-09-03T07:14:30;11.00;;;3.20;;
59310;SDS011;45078;51.654;21.250;2022-09-03T07:16:56;8.73;;;3.72;;
59310;SDS011;45078;51.654;21.250;2022-09-03T07:19:22;7.10;;;3.40;;
59310;SDS011;45078;51.654;21.250;2022-09-03T07:21:48;8.70;;;3.33;;
59310;SDS011;45078;51.654;21.250;2022-09-03T07:24:13;6.75;;;3.25;;
59310;SDS011;45078;51.654;21.250;2022-09-03T07:26:40;8.13;;;3.38;;
59310;SDS011;45078;51.654;21.250;2022-09-03T07:29:11;8.63;;;3.97;;
59310;SDS011;45078;51.654;21.250;2022-09-03T07:31:39;6.75;;;3.08;;
59310;SDS011;45078;51.654;21.250;2022-09-03T07:34:09;7.95;;;3.38;;
59310;SDS011;45078;51.654;21.250;2022-09-03T07:36:40;6.38;;;2.72;;
59310;SDS011;45078;51.654;21.250;2022-09-03T07:39:10;6.65;;;2.83;;
59310;SDS011;45078;51.654;21.250;2022-09-03T07:41:37;8.98;;;3.72;;
59310;SDS011;45078;51.654;21.250;2022-09-03T07:44:09;11.88;;;4.03;;
59310;SDS011;45078;51.654;21.250;2022-09-03T07:46:37;6.00;;;2.85;;
59310;SDS011;45078;51.654;21.250;2022-09-03T07:49:04;7.88;;;2.88;;
59310;SDS011;45078;51.654;21.250;2022-09-03T07:51:32;7.50;;;3.42;;
59310;SDS011;45078;51.654;21.250;2022-09-03T07:54:00;6.60;;;3.53;;
59310;SDS011;45078;51.654;21.250;2022-09-03T07:56:28;10.02;;;3.47;;
59310;SDS011;45078;51.654;21.250;2022-09-03T07:58:57;10.60;;;4.20;;
59310;SDS011;45078;51.654;21.250;2022-09-03T08:01:24;12.65;;;3.78;;
59310;SDS011;45078;51.654;21.250;2022-09-03T08:03:53;7.60;;;3.50;;
59310;SDS011;45078;51.654;21.250;2022-09-03T08:06:20;8.38;;;3.85;;
59310;SDS011;45078;51.654;21.250;2022-09-03T08:08:48;8.70;;;3.53;;
59310;SDS011;45078;51.654;21.250;2022-09-03T08:13:52;9.30;;;3.00;;
59310;SDS011;45078;51.654;21.250;2022-09-03T08:16:25;8.30;;;3.10;;
59310;SDS011;45078;51.654;21.250;2022-09-03T08:18:53;7.68;;;3.20;;
59310;SDS011;45078;51.654;21.250;2022-09-03T08:21:19;6.47;;;3.22;;
59310;SDS011;45078;51.654;21.250;2022-09-03T08:23:48;8.55;;;3.47;;
59310;SDS011;45078;51.654;21.250;2022-09-03T08:26:19;6.80;;;2.50;;
59310;SDS011;45078;51.654;21.250;2022-09-03T08:28:46;6.25;;;2.28;;
59310;SDS011;45078;51.654;21.250;2022-09-03T08:33:41;5.85;;;2.97;;
59310;SDS011;45078;51.654;21.250;2022-09-03T08:36:13;5.57;;;2.50;;
59310;SDS011;45078;51.654;21.250;2022-09-03T08:38:41;3.90;;;2.03;;
59310;SDS011;45078;51.654;21.250;2022-09-03T08:41:13;6.07;;;2.30;;
59310;SDS011;45078;51.654;21.250;2022-09-03T08:52:25;4.38;;;2.25;;
59310;SDS011;45078;51.654;21.250;2022-09-03T08:55:15;3.15;;;1.80;;
59310;SDS011;45078;51.654;21.250;2022-09-03T08:57:49;2.53;;;1.45;;
59310;SDS011;45078;51.654;21.250;2022-09-03T09:00:19;3.25;;;1.58;;
59310;SDS011;45078;51.654;21.250;2022-09-03T09:08:12;6.00;;;1.60;;
59310;SDS011;45078;51.654;21.250;2022-09-03T09:11:23;6.82;;;1.63;;
59310;SDS011;45078;51.654;21.250;2022-09-03T09:16:49;2.88;;;1.30;;
59310;SDS011;45078;51.654;21.250;2022-09-03T09:19:41;2.72;;;1.38;;
59310;SDS011;45078;51.654;21.250;2022-09-03T09:22:43;3.40;;;1.35;;
59310;SDS011;45078;51.654;21.250;2022-09-03T09:25:19;1.75;;;0.80;;
59310;SDS011;45078;51.654;21.250;2022-09-03T09:30:16;4.60;;;1.25;;
59310;SDS011;45078;51.654;21.250;2022-09-03T09:32:43;4.32;;;1.00;;
59310;SDS011;45078;51.654;21.250;2022-09-03T09:35:11;2.45;;;1.00;;
59310;SDS011;45078;51.654;21.250;2022-09-03T09:37:48;2.22;;;1.17;;
59310;SDS011;45078;51.654;21.250;2022-09-03T09:40:23;2.50;;;1.08;;
59310;SDS011;45078;51.654;21.250;2022-09-03T09:43:09;2.08;;;1.15;;
59310;SDS011;45078;51.654;21.250;2022-09-03T09:45:38;5.35;;;1.25;;
59310;SDS011;45078;51.654;21.250;2022-09-03T09:48:07;2.33;;;1.10;;
59310;SDS011;45078;51.654;21.250;2022-09-03T09:56:29;1.48;;;0.90;;
59310;SDS011;45078;51.654;21.250;2022-09-03T10:01:40;5.30;;;1.10;;
59310;SDS011;45078;51.654;21.250;2022-09-03T10:04:12;2.38;;;1.10;;
59310;SDS011;45078;51.654;21.250;2022-09-03T10:06:55;3.00;;;1.25;;
59310;SDS011;45078;51.654;21.250;2022-09-03T10:09:27;2.65;;;1.25;;
59310;SDS011;45078;51.654;21.250;2022-09-03T10:14:50;2.40;;;1.05;;
59310;SDS011;45078;51.654;21.250;2022-09-03T10:23:23;1.60;;;0.98;;
59310;SDS011;45078;51.654;21.250;2022-09-03T10:26:00;2.05;;;0.90;;
59310;SDS011;45078;51.654;21.250;2022-09-03T10:28:58;1.85;;;0.88;;
59310;SDS011;45078;51.654;21.250;2022-09-03T10:31:35;2.47;;;1.00;;
59310;SDS011;45078;51.654;21.250;2022-09-03T10:36:38;2.47;;;1.10;;
59310;SDS011;45078;51.654;21.250;2022-09-03T10:39:18;1.70;;;0.95;;
59310;SDS011;45078;51.654;21.250;2022-09-03T10:50:48;1.58;;;0.70;;
59310;SDS011;45078;51.654;21.250;2022-09-03T10:56:16;2.58;;;1.05;;
59310;SDS011;45078;51.654;21.250;2022-09-03T11:01:41;1.85;;;0.70;;
59310;SDS011;45078;51.654;21.250;2022-09-03T11:07:26;1.45;;;0.63;;
59310;SDS011;45078;51.654;21.250;2022-09-03T11:09:38;2.03;;;0.90;;
59310;SDS011;45078;51.654;21.250;2022-09-03T11:14:41;1.92;;;0.95;;
59310;SDS011;45078;51.654;21.250;2022-09-03T11:17:13;1.35;;;0.80;;
59310;SDS011;45078;51.654;21.250;2022-09-03T11:22:29;1.88;;;0.75;;
59310;SDS011;45078;51.654;21.250;2022-09-03T11:24:57;1.10;;;0.75;;
59310;SDS011;45078;51.654;21.250;2022-09-03T11:29:57;4.45;;;0.80;;
59310;SDS011;45078;51.654;21.250;2022-09-03T11:35:27;2.88;;;0.88;;
59310;SDS011;45078;51.654;21.250;2022-09-03T11:37:58;3.30;;;0.68;;
59310;SDS011;45078;51.654;21.250;2022-09-03T11:40:31;5.57;;;0.80;;
59310;SDS011;45078;51.654;21.250;2022-09-03T11:43:43;1.23;;;0.60;;
59310;SDS011;45078;51.654;21.250;2022-09-03T11:46:05;2.83;;;0.60;;
59310;SDS011;45078;51.654;21.250;2022-09-03T11:49:08;4.10;;;0.85;;
59310;SDS011;45078;51.654;21.250;2022-09-03T11:51:36;1.38;;;0.93;;
59310;SDS011;45078;51.654;21.250;2022-09-03T11:56:37;1.87;;;0.60;;
59310;SDS011;45078;51.654;21.250;2022-09-03T12:01:43;5.05;;;0.90;;
59310;SDS011;45078;51.654;21.250;2022-09-03T12:04:16;15.00;;;0.70;;
59310;SDS011;45078;51.654;21.250;2022-09-03T12:12:13;4.85;;;0.63;;
59310;SDS011;45078;51.654;21.250;2022-09-03T12:15:10;1.95;;;0.70;;
59310;SDS011;45078;51.654;21.250;2022-09-03T12:20:58;1.73;;;0.60;;
59310;SDS011;45078;51.654;21.250;2022-09-03T12:26:04;1.25;;;0.60;;
59310;SDS011;45078;51.654;21.250;2022-09-03T12:28:36;1.60;;;0.75;;
59310;SDS011;45078;51.654;21.250;2022-09-03T12:31:16;1.50;;;0.77;;
59310;SDS011;45078;51.654;21.250;2022-09-03T12:33:47;1.52;;;0.60;;
59310;SDS011;45078;51.654;21.250;2022-09-03T12:36:18;3.13;;;0.85;;
59310;SDS011;45078;51.654;21.250;2022-09-03T12:38:48;2.92;;;1.08;;
59310;SDS011;45078;51.654;21.250;2022-09-03T12:41:27;3.78;;;0.80;;
59310;SDS011;45078;51.654;21.250;2022-09-03T12:43:56;2.05;;;0.93;;
59310;SDS011;45078;51.654;21.250;2022-09-03T12:46:27;1.17;;;0.60;;
59310;SDS011;45078;51.654;21.250;2022-09-03T12:48:59;1.85;;;0.80;;
59310;SDS011;45078;51.654;21.250;2022-09-03T12:51:38;2.13;;;0.90;;
59310;SDS011;45078;51.654;21.250;2022-09-03T12:54:07;3.25;;;0.82;;
59310;SDS011;45078;51.654;21.250;2022-09-03T12:56:41;1.55;;;0.90;;
59310;SDS011;45078;51.654;21.250;2022-09-03T12:59:13;2.65;;;1.10;;
59310;SDS011;45078;51.654;21.250;2022-09-03T13:04:23;3.35;;;1.30;;
59310;SDS011;45078;51.654;21.250;2022-09-03T13:07:00;2.17;;;1.10;;
59310;SDS011;45078;51.654;21.250;2022-09-03T13:09:32;3.15;;;1.30;;
59310;SDS011;45078;51.654;21.250;2022-09-03T13:12:01;2.75;;;1.23;;
59310;SDS011;45078;51.654;21.250;2022-09-03T13:14:40;9.63;;;1.67;;
59310;SDS011;45078;51.654;21.250;2022-09-03T13:17:17;4.13;;;1.45;;
59310;SDS011;45078;51.654;21.250;2022-09-03T13:23:08;4.40;;;1.20;;
59310;SDS011;45078;51.654;21.250;2022-09-03T13:31:46;2.30;;;1.20;;
59310;SDS011;45078;51.654;21.250;2022-09-03T13:34:36;1.88;;;0.90;;
59310;SDS011;45078;51.654;21.250;2022-09-03T13:46:07;2.67;;;1.20;;
59310;SDS011;45078;51.654;21.250;2022-09-03T13:48:48;2.80;;;1.20;;
59310;SDS011;45078;51.654;21.250;2022-09-03T13:54:17;3.05;;;1.38;;
59310;SDS011;45078;51.654;21.250;2022-09-03T13:59:31;2.63;;;1.48;;
59310;SDS011;45078;51.654;21.250;2022-09-03T14:02:26;3.42;;;1.50;;
59310;SDS011;45078;51.654;21.250;2022-09-03T14:05:14;5.90;;;1.45;;
59310;SDS011;45078;51.654;21.250;2022-09-03T14:08:00;2.50;;;1.33;;
59310;SDS011;45078;51.654;21.250;2022-09-03T14:10:55;3.58;;;1.45;;
59310;SDS011;45078;51.654;21.250;2022-09-03T14:25:13;11.10;;;1.92;;
59310;SDS011;45078;51.654;21.250;2022-09-03T14:27:41;2.53;;;1.40;;
59310;SDS011;45078;51.654;21.250;2022-09-03T14:39:16;4.82;;;1.70;;
59310;SDS011;45078;51.654;21.250;2022-09-03T14:47:49;3.28;;;1.55;;
59310;SDS011;45078;51.654;21.250;2022-09-03T15:01:46;5.22;;;1.90;;
59310;SDS011;45078;51.654;21.250;2022-09-03T15:07:35;4.45;;;1.90;;
59310;SDS011;45078;51.654;21.250;2022-09-03T15:13:33;3.63;;;1.63;;
59310;SDS011;45078;51.654;21.250;2022-09-03T15:30:11;3.85;;;1.65;;
59310;SDS011;45078;51.654;21.250;2022-09-03T15:38:04;3.80;;;2.10;;
59310;SDS011;45078;51.654;21.250;2022-09-03T15:45:55;4.40;;;1.95;;
59310;SDS011;45078;51.654;21.250;2022-09-03T15:48:32;5.07;;;2.35;;
59310;SDS011;45078;51.654;21.250;2022-09-03T15:51:27;5.65;;;2.38;;
59310;SDS011;45078;51.654;21.250;2022-09-03T15:54:00;6.05;;;2.40;;
59310;SDS011;45078;51.654;21.250;2022-09-03T15:56:53;3.42;;;2.20;;
59310;SDS011;45078;51.654;21.250;2022-09-03T16:05:56;3.83;;;2.15;;
59310;SDS011;45078;51.654;21.250;2022-09-03T16:13:39;5.13;;;2.42;;
59310;SDS011;45078;51.654;21.250;2022-09-03T16:16:15;5.35;;;2.42;;
59310;SDS011;45078;51.654;21.250;2022-09-03T16:24:45;8.40;;;2.88;;
59310;SDS011;45078;51.654;21.250;2022-09-03T16:27:23;17.95;;;3.53;;
59310;SDS011;45078;51.654;21.250;2022-09-03T16:30:12;14.88;;;3.60;;
59310;SDS011;45078;51.654;21.250;2022-09-03T16:47:20;9.20;;;3.58;;
59310;SDS011;45078;51.654;21.250;2022-09-03T16:58:52;9.70;;;3.50;;
59310;SDS011;45078;51.654;21.250;2022-09-03T17:10:38;8.02;;;3.10;;
59310;SDS011;45078;51.654;21.250;2022-09-03T17:13:25;6.63;;;2.80;;
59310;SDS011;45078;51.654;21.250;2022-09-03T17:35:17;9.85;;;3.65;;
59310;SDS011;45078;51.654;21.250;2022-09-03T18:01:49;8.40;;;3.22;;
59310;SDS011;45078;51.654;21.250;2022-09-03T18:04:28;7.38;;;3.60;;
59310;SDS011;45078;51.654;21.250;2022-09-03T18:16:05;5.97;;;3.10;;
59310;SDS011;45078;51.654;21.250;2022-09-03T18:18:31;8.57;;;3.50;;
59310;SDS011;45078;51.654;21.250;2022-09-03T18:21:02;8.88;;;3.45;;
59310;SDS011;45078;51.654;21.250;2022-09-03T18:26:49;12.55;;;3.90;;
59310;SDS011;45078;51.654;21.250;2022-09-03T18:29:47;7.68;;;3.55;;
59310;SDS011;45078;51.654;21.250;2022-09-03T18:32:38;12.35;;;4.53;;
59310;SDS011;45078;51.654;21.250;2022-09-03T18:35:23;11.57;;;4.20;;
59310;SDS011;45078;51.654;21.250;2022-09-03T18:38:12;9.32;;;3.92;;
59310;SDS011;45078;51.654;21.250;2022-09-03T18:56:47;7.47;;;3.47;;
59310;SDS011;45078;51.654;21.250;2022-09-03T19:09:12;9.75;;;4.82;;
59310;SDS011;45078;51.654;21.250;2022-09-03T19:24:01;7.13;;;3.50;;
59310;SDS011;45078;51.654;21.250;2022-09-03T19:36:12;10.45;;;3.80;;
59310;SDS011;45078;51.654;21.250;2022-09-03T19:42:25;6.78;;;3.70;;
59310;SDS011;45078;51.654;21.250;2022-09-03T19:48:48;9.15;;;4.22;;
59310;SDS011;45078;51.654;21.250;2022-09-03T19:51:38;7.03;;;3.45;;
59310;SDS011;45078;51.654;21.250;2022-09-03T19:54:38;10.05;;;4.40;;
59310;SDS011;45078;51.654;21.250;2022-09-03T19:57:23;11.60;;;4.03;;
59310;SDS011;45078;51.654;21.250;2022-09-03T20:00:09;8.18;;;3.50;;
59310;SDS011;45078;51.654;21.250;2022-09-03T20:02:54;10.90;;;3.75;;
59310;SDS011;45078;51.654;21.250;2022-09-03T20:05:40;7.90;;;3.35;;
59310;SDS011;45078;51.654;21.250;2022-09-03T20:08:26;8.50;;;3.70;;
59310;SDS011;45078;51.654;21.250;2022-09-03T20:11:19;8.75;;;3.60;;
59310;SDS011;45078;51.654;21.250;2022-09-03T20:27:03;14.07;;;4.30;;
59310;SDS011;45078;51.654;21.250;2022-09-03T20:29:51;8.52;;;3.80;;
59310;SDS011;45078;51.654;21.250;2022-09-03T20:35:21;7.70;;;3.72;;
59310;SDS011;45078;51.654;21.250;2022-09-03T20:49:19;10.23;;;4.72;;
59310;SDS011;45078;51.654;21.250;2022-09-03T20:54:41;13.13;;;3.90;;
59310;SDS011;45078;51.654;21.250;2022-09-03T21:00:14;10.07;;;4.68;;
59310;SDS011;45078;51.654;21.250;2022-09-03T21:08:47;10.95;;;5.07;;
59310;SDS011;45078;51.654;21.250;2022-09-03T21:11:47;12.25;;;4.60;;
59310;SDS011;45078;51.654;21.250;2022-09-03T21:14:50;9.32;;;4.53;;
59310;SDS011;45078;51.654;21.250;2022-09-03T21:20:29;11.13;;;4.70;;
59310;SDS011;45078;51.654;21.250;2022-09-03T21:23:27;7.68;;;4.70;;
59310;SDS011;45078;51.654;21.250;2022-09-03T21:26:16;13.30;;;4.55;;
59310;SDS011;45078;51.654;21.250;2022-09-03T21:28:58;14.88;;;5.68;;
59310;SDS011;45078;51.654;21.250;2022-09-03T21:37:16;14.73;;;5.05;;
59310;SDS011;45078;51.654;21.250;2022-09-03T21:39:48;12.98;;;4.85;;
59310;SDS011;45078;51.654;21.250;2022-09-03T21:45:06;8.60;;;4.70;;
59310;SDS011;45078;51.654;21.250;2022-09-03T21:47:42;9.65;;;4.78;;
59310;SDS011;45078;51.654;21.250;2022-09-03T21:50:16;8.38;;;4.40;;
59310;SDS011;45078;51.654;21.250;2022-09-03T21:55:37;11.30;;;4.63;;
59310;SDS011;45078;51.654;21.250;2022-09-03T22:01:12;7.25;;;3.85;;
59310;SDS011;45078;51.654;21.250;2022-09-03T22:03:44;11.65;;;4.65;;
59310;SDS011;45078;51.654;21.250;2022-09-03T22:06:13;8.48;;;4.30;;
59310;SDS011;45078;51.654;21.250;2022-09-03T22:09:16;8.43;;;4.15;;
59310;SDS011;45078;51.654;21.250;2022-09-03T22:14:38;7.22;;;4.03;;
59310;SDS011;45078;51.654;21.250;2022-09-03T22:17:21;6.57;;;3.97;;
59310;SDS011;45078;51.654;21.250;2022-09-03T22:20:10;11.15;;;5.13;;
59310;SDS011;45078;51.654;21.250;2022-09-03T22:33:49;7.18;;;3.97;;
59310;SDS011;45078;51.654;21.250;2022-09-03T22:36:47;6.53;;;4.43;;
59310;SDS011;45078;51.654;21.250;2022-09-03T22:45:00;8.57;;;4.10;;
59310;SDS011;45078;51.654;21.250;2022-09-03T22:47:46;7.43;;;3.88;;
59310;SDS011;45078;51.654;21.250;2022-09-03T22:55:28;8.88;;;3.85;;
59310;SDS011;45078;51.654;21.250;2022-09-03T22:57:56;8.18;;;4.20;;
59310;SDS011;45078;51.654;21.250;2022-09-03T23:00:54;10.93;;;4.88;;
59310;SDS011;45078;51.654;21.250;2022-09-03T23:03:33;6.65;;;4.03;;
59310;SDS011;45078;51.654;21.250;2022-09-03T23:06:37;11.10;;;4.22;;
59310;SDS011;45078;51.654;21.250;2022-09-03T23:09:06;9.40;;;4.83;;
59310;SDS011;45078;51.654;21.250;2022-09-03T23:11:46;11.00;;;5.10;;
59310;SDS011;45078;51.654;21.250;2022-09-03T23:14:23;5.78;;;3.63;;
59310;SDS011;45078;51.654;21.250;2022-09-03T23:17:08;14.93;;;4.85;;
59310;SDS011;45078;51.654;21.250;2022-09-03T23:19:47;11.38;;;4.22;;
59310;SDS011;45078;51.654;21.250;2022-09-03T23:22:22;6.82;;;4.32;;
59310;SDS011;45078;51.654;21.250;2022-09-03T23:30:32;10.00;;;3.97;;